createdAt,value
2017-09-10T00:02:17.592Z,6.47
2017-09-10T00:04:46.016Z,7.10
2017-09-10T00:07:14.440Z,7.00
2017-09-10T00:09:42.687Z,7.10
2017-09-10T00:12:11.248Z,7.37
2017-09-10T00:14:39.686Z,6.90
2017-09-10T00:17:08.114Z,6.73
2017-09-10T00:19:38.220Z,7.60
2017-09-10T00:22:06.657Z,7.20
2017-09-10T00:24:35.853Z,7.23
2017-09-10T00:27:04.491Z,6.87
2017-09-10T00:29:32.920Z,6.70
2017-09-10T00:32:01.358Z,8.00
2017-09-10T00:34:29.788Z,7.73
2017-09-10T00:36:59.058Z,7.00
2017-09-10T00:39:29.996Z,7.80
2017-09-10T00:42:01.542Z,7.30
2017-09-10T00:44:30.796Z,6.97
2017-09-10T00:47:00.727Z,7.63
2017-09-10T00:49:29.374Z,7.07
2017-09-10T00:51:57.121Z,7.80
2017-09-10T00:54:25.636Z,7.00
2017-09-10T00:56:54.069Z,6.83
2017-09-10T00:59:22.576Z,7.30
2017-09-10T01:01:50.993Z,6.80
2017-09-10T01:04:19.109Z,7.10
2017-09-10T01:06:47.562Z,7.10
2017-09-10T01:09:16.003Z,7.50
2017-09-10T01:11:44.492Z,7.70
2017-09-10T01:14:12.920Z,7.70
2017-09-10T01:16:41.618Z,8.00
2017-09-10T01:19:09.735Z,6.93
2017-09-10T01:21:38.164Z,7.30
2017-09-10T01:24:06.295Z,8.00
2017-09-10T01:26:34.808Z,6.80
2017-09-10T01:29:04.009Z,7.80
2017-09-10T01:31:32.436Z,7.37
2017-09-10T01:34:00.891Z,7.10
2017-09-10T01:36:29.326Z,7.40
2017-09-10T01:38:57.979Z,7.37
2017-09-10T01:41:26.504Z,6.80
2017-09-10T01:43:54.937Z,7.37
2017-09-10T01:46:23.563Z,7.40
2017-09-10T01:48:52.067Z,6.80
2017-09-10T01:51:21.560Z,6.70
2017-09-10T01:53:50.717Z,7.40
2017-09-10T01:56:21.442Z,7.00
2017-09-10T01:58:50.568Z,7.67
2017-09-10T02:01:21.533Z,7.33
2017-09-10T02:03:50.444Z,7.67
2017-09-10T02:06:18.860Z,7.53
2017-09-10T02:08:47.446Z,7.83
2017-09-10T02:11:16.130Z,7.10
2017-09-10T02:13:44.663Z,7.47
2017-09-10T02:16:13.072Z,7.30
2017-09-10T02:18:41.479Z,8.20
2017-09-10T02:21:10.032Z,6.80
2017-09-10T02:23:38.451Z,6.70
2017-09-10T02:26:06.891Z,6.80
2017-09-10T02:28:35.477Z,7.40
2017-09-10T02:31:03.905Z,7.23
2017-09-10T02:33:32.538Z,7.43
2017-09-10T02:36:00.964Z,6.50
2017-09-10T02:38:30.274Z,8.17
2017-09-10T02:40:58.729Z,6.80
2017-09-10T02:43:27.161Z,6.67
2017-09-10T02:45:55.590Z,7.13
2017-09-10T02:48:24.050Z,6.40
2017-09-10T02:50:52.603Z,6.63
2017-09-10T02:53:21.183Z,6.70
2017-09-10T02:55:49.624Z,7.20
2017-09-10T02:58:20.940Z,5.93
2017-09-10T03:00:51.571Z,6.77
2017-09-10T03:03:24.161Z,7.67
2017-09-10T03:05:52.587Z,7.10
2017-09-10T03:08:21.174Z,7.23
2017-09-10T03:10:49.597Z,7.50
2017-09-10T03:13:18.169Z,7.87
2017-09-10T03:15:46.602Z,8.20
2017-09-10T03:18:15.040Z,8.60
2017-09-10T03:20:43.492Z,8.33
2017-09-10T03:23:12.036Z,6.63
2017-09-10T03:25:40.719Z,7.10
2017-09-10T03:28:09.132Z,6.43
2017-09-10T03:30:37.225Z,6.30
2017-09-10T03:33:05.649Z,6.73
2017-09-10T03:35:34.081Z,5.70
2017-09-10T03:38:02.534Z,6.83
2017-09-10T03:40:30.976Z,6.03
2017-09-10T03:42:59.405Z,5.87
2017-09-10T03:45:27.657Z,5.47
2017-09-10T03:47:56.116Z,6.07
2017-09-10T03:50:24.586Z,5.93
2017-09-10T03:52:53.029Z,5.70
2017-09-10T03:55:21.534Z,6.00
2017-09-10T03:57:50.015Z,5.63
2017-09-10T04:00:18.599Z,5.70
2017-09-10T04:02:47.033Z,5.50
2017-09-10T04:05:15.472Z,5.70
2017-09-10T04:07:44.036Z,6.17
2017-09-10T04:10:12.715Z,5.90
2017-09-10T04:12:41.143Z,5.87
2017-09-10T04:15:09.690Z,5.40
2017-09-10T04:17:38.169Z,5.93
2017-09-10T04:20:06.627Z,5.53
2017-09-10T04:22:35.108Z,5.20
2017-09-10T04:25:03.543Z,5.33
2017-09-10T04:27:32.063Z,4.97
2017-09-10T04:30:00.492Z,5.40
2017-09-10T04:32:28.256Z,5.73
2017-09-10T04:34:56.887Z,5.83
2017-09-10T04:37:25.491Z,5.93
2017-09-10T04:39:53.922Z,6.57
2017-09-10T04:42:23.334Z,6.57
2017-09-10T04:44:51.764Z,6.70
2017-09-10T04:47:20.199Z,6.87
2017-09-10T04:49:48.849Z,6.17
2017-09-10T04:52:17.320Z,7.00
2017-09-10T04:54:46.659Z,6.40
2017-09-10T04:57:15.217Z,6.10
2017-09-10T04:59:43.667Z,5.77
2017-09-10T05:02:12.858Z,5.80
2017-09-10T05:04:41.278Z,5.93
2017-09-10T05:07:09.683Z,5.50
2017-09-10T05:09:38.104Z,5.50
2017-09-10T05:12:07.300Z,4.90
2017-09-10T05:14:35.771Z,4.70
2017-09-10T05:17:05.116Z,5.20
2017-09-10T05:19:33.540Z,5.20
2017-09-10T05:22:02.071Z,4.80
2017-09-10T05:24:30.484Z,5.97
2017-09-10T05:26:58.913Z,5.50
2017-09-10T05:29:27.505Z,6.00
2017-09-10T05:31:55.952Z,6.00
2017-09-10T05:34:24.053Z,6.50
2017-09-10T05:36:52.495Z,6.07
2017-09-10T05:39:20.920Z,6.30
2017-09-10T05:41:49.390Z,5.67
2017-09-10T05:44:17.487Z,5.50
2017-09-10T05:46:46.137Z,5.97
2017-09-10T05:49:14.564Z,5.50
2017-09-10T05:51:43.032Z,5.67
2017-09-10T05:54:11.448Z,6.37
2017-09-10T05:56:39.928Z,5.27
2017-09-10T05:59:08.344Z,6.23
2017-09-10T06:01:36.777Z,6.20
2017-09-10T06:04:05.993Z,6.43
2017-09-10T06:06:34.436Z,5.80
2017-09-10T06:09:02.901Z,6.23
2017-09-10T06:11:31.370Z,6.30
2017-09-10T06:13:59.822Z,5.80
2017-09-10T06:16:28.116Z,5.30
2017-09-10T06:18:56.464Z,5.10
2017-09-10T06:21:24.838Z,5.10
2017-09-10T06:23:53.256Z,5.20
2017-09-10T06:26:21.899Z,5.87
2017-09-10T06:28:50.350Z,5.17
2017-09-10T06:31:18.783Z,5.30
2017-09-10T06:33:47.202Z,5.73
2017-09-10T06:36:15.648Z,6.10
2017-09-10T06:38:44.108Z,5.47
2017-09-10T06:41:12.536Z,6.40
2017-09-10T06:43:41.012Z,5.17
2017-09-10T06:46:09.457Z,5.90
2017-09-10T06:48:37.896Z,5.87
2017-09-10T06:51:06.332Z,6.40
2017-09-10T06:53:35.548Z,6.40
2017-09-10T06:56:04.045Z,5.70
2017-09-10T06:58:32.511Z,5.60
2017-09-10T07:01:01.181Z,5.30
2017-09-10T07:03:29.603Z,6.00
2017-09-10T07:05:58.049Z,4.90
2017-09-10T07:08:26.490Z,5.47
2017-09-10T07:10:55.026Z,5.40
2017-09-10T07:13:23.671Z,5.17
2017-09-10T07:15:52.860Z,5.40
2017-09-10T07:18:21.284Z,5.00
2017-09-10T07:20:49.715Z,4.30
2017-09-10T07:23:18.132Z,5.00
2017-09-10T07:25:46.825Z,4.50
2017-09-10T07:28:15.393Z,4.33
2017-09-10T07:30:43.833Z,4.40
2017-09-10T07:33:12.263Z,3.73
2017-09-10T07:35:40.870Z,3.87
2017-09-10T07:38:09.291Z,3.93
2017-09-10T07:40:37.730Z,3.53
2017-09-10T07:43:06.772Z,3.37
2017-09-10T07:45:35.204Z,3.50
2017-09-10T07:48:03.643Z,3.70
2017-09-10T07:50:32.072Z,3.07
2017-09-10T07:53:00.507Z,3.43
2017-09-10T07:55:28.936Z,4.00
2017-09-10T07:57:57.376Z,3.97
2017-09-10T08:00:25.149Z,4.23
2017-09-10T08:02:54.346Z,3.93
2017-09-10T08:05:22.977Z,3.47
2017-09-10T08:07:51.405Z,3.53
2017-09-10T08:10:19.844Z,3.40
2017-09-10T08:12:48.429Z,3.57
2017-09-10T08:15:16.844Z,3.87
2017-09-10T08:17:45.259Z,4.27
2017-09-10T08:20:13.848Z,4.27
2017-09-10T08:22:42.324Z,3.97
2017-09-10T08:25:10.906Z,4.10
2017-09-10T08:27:39.332Z,3.87
2017-09-10T08:30:08.527Z,3.47
2017-09-10T08:32:36.955Z,3.97
2017-09-10T08:35:05.484Z,3.30
2017-09-10T08:37:34.496Z,3.63
2017-09-10T08:40:02.919Z,3.43
2017-09-10T08:42:31.361Z,3.90
2017-09-10T08:44:59.817Z,3.23
2017-09-10T08:47:28.267Z,3.40
2017-09-10T08:49:56.703Z,3.53
2017-09-10T08:52:25.192Z,3.33
2017-09-10T08:54:54.207Z,3.70
2017-09-10T08:57:25.989Z,3.57
2017-09-10T08:59:58.407Z,3.70
2017-09-10T09:02:27.410Z,3.53
2017-09-10T09:04:57.763Z,3.10
2017-09-10T09:07:30.134Z,3.37
2017-09-10T09:19:39.501Z,3.50
2017-09-10T09:22:07.942Z,3.60
2017-09-10T09:24:36.475Z,3.10
2017-09-10T09:27:04.913Z,3.23
2017-09-10T09:29:33.345Z,3.13
2017-09-10T09:32:02.572Z,3.70
2017-09-10T09:34:31.352Z,2.60
2017-09-10T09:36:59.789Z,2.77
2017-09-10T09:39:28.395Z,2.50
2017-09-10T09:41:56.917Z,2.80
2017-09-10T09:44:25.404Z,2.80
2017-09-10T09:46:55.823Z,2.20
2017-09-10T09:49:24.233Z,2.57
2017-09-10T09:51:54.095Z,2.93
2017-09-10T09:54:23.893Z,2.50
2017-09-10T09:56:52.325Z,2.53
2017-09-10T09:59:22.920Z,2.57
2017-09-10T10:01:52.424Z,2.60
2017-09-10T10:04:20.873Z,2.43
2017-09-10T10:06:49.298Z,2.60
2017-09-10T10:09:17.751Z,2.63
2017-09-10T10:11:46.182Z,2.30
2017-09-10T10:14:14.632Z,2.50
2017-09-10T10:16:43.073Z,2.20
2017-09-10T10:19:11.638Z,2.63
2017-09-10T10:21:40.665Z,2.40
2017-09-10T10:24:09.953Z,2.60
2017-09-10T10:26:38.400Z,2.53
2017-09-10T10:29:07.505Z,2.30
2017-09-10T10:31:35.982Z,2.60
2017-09-10T10:34:04.428Z,2.67
2017-09-10T10:36:32.856Z,2.60
2017-09-10T10:39:01.323Z,1.90
2017-09-10T10:41:29.814Z,2.03
2017-09-10T10:43:58.268Z,2.20
2017-09-10T10:46:26.873Z,2.13
2017-09-10T10:48:55.556Z,2.57
2017-09-10T10:51:23.997Z,2.10
2017-09-10T10:53:52.428Z,2.10
2017-09-10T10:56:21.172Z,2.40
2017-09-10T10:58:49.633Z,2.10
2017-09-10T11:01:18.067Z,2.07
2017-09-10T11:03:46.529Z,2.17
2017-09-10T11:06:14.994Z,2.20
2017-09-10T11:08:43.471Z,2.63
2017-09-10T11:11:11.775Z,2.20
2017-09-10T11:13:40.213Z,2.00
2017-09-10T11:16:08.796Z,2.17
2017-09-10T11:18:37.233Z,2.10
2017-09-10T11:21:05.685Z,2.50
2017-09-10T11:23:34.122Z,2.30
2017-09-10T11:26:02.585Z,2.40
2017-09-10T11:28:31.210Z,2.20
2017-09-10T11:30:59.688Z,1.80
2017-09-10T11:33:28.736Z,2.00
2017-09-10T11:35:57.933Z,2.10
2017-09-10T11:38:27.278Z,2.10
2017-09-10T11:40:55.738Z,1.90
2017-09-10T11:43:24.340Z,2.47
2017-09-10T11:45:53.017Z,2.57
2017-09-10T11:48:21.604Z,2.37
2017-09-10T11:50:50.048Z,2.07
2017-09-10T11:53:18.494Z,2.20
2017-09-10T11:55:48.172Z,2.13
2017-09-10T11:58:17.743Z,2.40
2017-09-10T12:00:46.345Z,2.00
2017-09-10T12:03:14.723Z,2.30
2017-09-10T12:05:43.073Z,2.57
2017-09-10T12:08:12.292Z,2.17
2017-09-10T12:10:40.881Z,2.53
2017-09-10T12:13:09.311Z,2.00
2017-09-10T12:15:39.012Z,2.20
2017-09-10T12:18:07.478Z,2.10
2017-09-10T12:20:35.916Z,2.47
2017-09-10T12:23:04.357Z,2.33
2017-09-10T12:25:32.786Z,2.00
2017-09-10T12:28:01.245Z,2.23
2017-09-10T12:30:29.737Z,2.20
2017-09-10T12:32:58.210Z,2.30
2017-09-10T12:35:26.642Z,2.77
2017-09-10T12:37:55.074Z,2.33
2017-09-10T12:40:24.559Z,2.20
2017-09-10T12:42:53.000Z,2.10
2017-09-10T12:45:22.108Z,2.70
2017-09-10T12:47:50.543Z,2.50
2017-09-10T12:50:19.929Z,2.37
2017-09-10T12:52:48.368Z,2.43
2017-09-10T12:55:17.048Z,2.57
2017-09-10T12:57:46.185Z,2.27
2017-09-10T13:00:14.708Z,2.23
2017-09-10T13:02:43.195Z,2.60
2017-09-10T13:05:11.701Z,2.40
2017-09-10T13:07:40.180Z,2.40
2017-09-10T13:10:08.649Z,2.40
2017-09-10T13:12:37.098Z,2.40
2017-09-10T13:15:06.287Z,2.20
2017-09-10T13:17:34.809Z,1.83
2017-09-10T13:20:03.245Z,2.00
2017-09-10T13:22:31.679Z,2.30
2017-09-10T13:25:00.112Z,2.10
2017-09-10T13:27:28.821Z,2.60
2017-09-10T13:29:58.233Z,1.90
2017-09-10T13:32:26.701Z,2.00
2017-09-10T13:34:55.129Z,2.00
2017-09-10T13:37:23.543Z,2.33
2017-09-10T13:39:51.789Z,2.10
2017-09-10T13:42:20.832Z,2.30
2017-09-10T13:44:49.404Z,2.30
2017-09-10T13:47:18.090Z,2.60
2017-09-10T13:49:46.542Z,2.77
2017-09-10T13:52:15.055Z,2.13
2017-09-10T13:54:43.496Z,2.37
2017-09-10T13:57:12.002Z,2.20
2017-09-10T13:59:40.424Z,2.27
2017-09-10T14:02:09.057Z,2.50
2017-09-10T14:04:37.524Z,2.37
2017-09-10T14:07:06.597Z,2.10
2017-09-10T14:09:34.897Z,2.40
2017-09-10T14:12:03.327Z,2.57
2017-09-10T14:14:31.795Z,2.13
2017-09-10T14:17:00.253Z,2.20
2017-09-10T14:19:28.717Z,2.60
2017-09-10T14:21:57.145Z,2.50
2017-09-10T14:24:25.595Z,2.73
2017-09-10T14:26:54.087Z,2.53
2017-09-10T14:29:22.543Z,2.70
2017-09-10T14:31:51.033Z,2.20
2017-09-10T14:34:23.537Z,2.43
2017-09-10T14:36:53.053Z,2.20
2017-09-10T14:39:22.376Z,2.50
2017-09-10T14:41:50.816Z,2.80
2017-09-10T14:44:19.069Z,2.60
2017-09-10T14:46:47.500Z,2.53
2017-09-10T14:49:16.200Z,2.50
2017-09-10T14:51:44.654Z,2.50
2017-09-10T14:54:13.102Z,2.90
2017-09-10T14:56:41.798Z,2.40
2017-09-10T14:59:10.240Z,2.23
2017-09-10T15:01:38.649Z,2.67
2017-09-10T15:04:07.985Z,2.37
2017-09-10T15:06:36.673Z,2.20
2017-09-10T15:09:04.726Z,2.47
2017-09-10T15:11:33.194Z,2.60
2017-09-10T15:14:01.650Z,2.30
2017-09-10T15:16:30.145Z,2.50
2017-09-10T15:18:58.573Z,2.27
2017-09-10T15:21:27.026Z,2.30
2017-09-10T15:23:55.602Z,2.40
2017-09-10T15:26:24.033Z,2.53
2017-09-10T15:28:53.072Z,2.30
2017-09-10T15:31:21.329Z,2.40
2017-09-10T15:33:49.587Z,2.27
2017-09-10T15:36:27.876Z,2.70
2017-09-10T15:38:56.614Z,2.90
2017-09-10T15:41:25.302Z,2.40
2017-09-10T15:43:56.596Z,2.23
2017-09-10T15:46:25.722Z,2.10
2017-09-10T15:48:58.278Z,2.03
2017-09-10T15:51:28.267Z,2.77
2017-09-10T15:53:56.725Z,2.13
2017-09-10T15:56:25.149Z,2.10
2017-09-10T15:58:53.580Z,2.00
2017-09-10T16:01:21.935Z,2.50
2017-09-10T16:03:50.360Z,2.37
2017-09-10T16:06:18.928Z,2.87
2017-09-10T16:08:47.466Z,2.60
2017-09-10T16:11:16.007Z,2.33
2017-09-10T16:13:44.558Z,2.40
2017-09-10T16:16:13.333Z,2.60
2017-09-10T16:18:41.782Z,2.60
2017-09-10T16:21:10.464Z,2.67
2017-09-10T16:23:40.458Z,2.47
2017-09-10T16:26:09.530Z,2.60
2017-09-10T16:28:38.838Z,2.47
2017-09-10T16:31:07.295Z,2.30
2017-09-10T16:33:35.565Z,2.50
2017-09-10T16:36:04.086Z,2.60
2017-09-10T16:38:33.153Z,2.53
2017-09-10T16:41:02.534Z,2.73
2017-09-10T16:43:30.977Z,2.57
2017-09-10T16:45:59.408Z,2.53
2017-09-10T16:48:27.848Z,2.60
2017-09-10T16:50:56.372Z,2.50
2017-09-10T16:53:24.646Z,2.30
2017-09-10T16:55:53.686Z,2.63
2017-09-10T16:58:21.958Z,2.80
2017-09-10T17:00:50.389Z,3.00
2017-09-10T17:03:19.583Z,2.77
2017-09-10T17:05:48.101Z,2.90
2017-09-10T17:08:16.784Z,3.00
2017-09-10T17:10:45.776Z,2.70
2017-09-10T17:13:14.225Z,2.80
2017-09-10T17:15:42.770Z,2.80
2017-09-10T17:18:11.975Z,2.60
2017-09-10T17:20:40.404Z,3.03
2017-09-10T17:23:10.450Z,3.20
2017-09-10T17:25:39.682Z,3.13
2017-09-10T17:28:08.142Z,3.30
2017-09-10T17:30:36.614Z,3.30
2017-09-10T17:33:05.055Z,2.97
2017-09-10T17:35:33.487Z,3.07
2017-09-10T17:38:01.925Z,2.87
2017-09-10T17:40:30.361Z,3.20
2017-09-10T17:42:58.785Z,3.60
2017-09-10T17:45:27.249Z,3.17
2017-09-10T17:47:55.730Z,3.20
2017-09-10T17:50:24.307Z,3.20
2017-09-10T17:52:52.617Z,3.60
2017-09-10T17:55:20.862Z,3.47
2017-09-10T17:57:49.134Z,3.53
2017-09-10T18:00:17.392Z,3.30
2017-09-10T18:02:45.821Z,3.40
2017-09-10T18:05:14.358Z,3.27
2017-09-10T18:07:42.855Z,3.20
2017-09-10T18:10:11.406Z,3.20
2017-09-10T18:12:39.864Z,3.23
2017-09-10T18:15:08.307Z,2.97
2017-09-10T18:17:36.789Z,3.20
2017-09-10T18:20:05.056Z,3.30
2017-09-10T18:22:33.521Z,3.40
2017-09-10T18:25:01.952Z,3.13
2017-09-10T18:27:30.388Z,3.63
2017-09-10T18:29:58.804Z,3.17
2017-09-10T18:32:27.311Z,3.30
2017-09-10T18:34:55.922Z,3.57
2017-09-10T18:37:24.464Z,3.00
2017-09-10T18:39:52.920Z,3.00
2017-09-10T18:42:22.123Z,3.43
2017-09-10T18:44:51.544Z,3.30
2017-09-10T18:47:19.993Z,3.43
2017-09-10T18:49:48.802Z,3.57
2017-09-10T18:52:18.324Z,3.10
2017-09-10T18:54:48.321Z,3.23
2017-09-10T18:57:19.550Z,3.20
2017-09-10T18:59:47.850Z,3.30
2017-09-10T19:02:16.300Z,3.70
2017-09-10T19:04:44.746Z,3.30
2017-09-10T19:07:13.271Z,3.50
2017-09-10T19:09:41.700Z,4.03
2017-09-10T19:12:10.117Z,3.30
2017-09-10T19:14:39.425Z,3.50
2017-09-10T19:17:07.909Z,3.10
2017-09-10T19:19:36.339Z,3.17
2017-09-10T19:22:04.766Z,3.17
2017-09-10T19:24:33.524Z,3.20
2017-09-10T19:27:01.969Z,3.20
2017-09-10T19:29:31.318Z,2.87
2017-09-10T19:31:59.850Z,3.10
2017-09-10T19:34:28.296Z,3.23
2017-09-10T19:36:56.863Z,4.07
2017-09-10T19:39:25.292Z,3.90
2017-09-10T19:41:56.173Z,3.67
2017-09-10T19:44:24.601Z,3.30
2017-09-10T19:46:56.006Z,3.57
2017-09-10T19:49:24.269Z,3.33
2017-09-10T19:51:52.691Z,3.20
2017-09-10T19:54:21.136Z,3.80
2017-09-10T19:56:49.760Z,3.60
2017-09-10T19:59:18.209Z,3.53
2017-09-10T20:01:46.677Z,3.60
2017-09-10T20:04:15.095Z,3.60
2017-09-10T20:06:44.296Z,3.47
2017-09-10T20:09:13.499Z,3.60
2017-09-10T20:11:41.935Z,3.73
2017-09-10T20:14:12.129Z,3.20
2017-09-10T20:16:41.394Z,3.70
2017-09-10T20:19:13.176Z,3.10
2017-09-10T20:34:36.980Z,3.00
2017-09-10T20:37:05.408Z,3.43
2017-09-10T20:39:33.849Z,3.30
2017-09-10T20:42:02.274Z,3.20
2017-09-10T20:44:30.590Z,3.40
2017-09-10T20:46:59.793Z,3.93
2017-09-10T20:49:28.232Z,3.47
2017-09-10T20:51:57.455Z,3.10
2017-09-10T20:54:25.908Z,3.40
2017-09-10T20:56:54.350Z,3.00
2017-09-10T20:59:29.017Z,3.20
2017-09-10T21:01:57.572Z,3.00
2017-09-10T21:04:25.981Z,3.00
2017-09-10T21:06:54.514Z,3.40
2017-09-10T21:09:22.955Z,3.03
2017-09-10T21:11:52.144Z,2.97
2017-09-10T21:14:21.348Z,3.37
2017-09-10T21:16:50.567Z,3.23
2017-09-10T21:19:19.196Z,3.13
2017-09-10T21:21:47.617Z,3.37
2017-09-10T21:24:17.883Z,3.80
2017-09-10T21:26:46.312Z,3.80
2017-09-10T21:29:14.552Z,3.27
2017-09-10T21:31:42.965Z,3.03
2017-09-10T21:34:11.431Z,3.00
2017-09-10T21:36:39.860Z,3.57
2017-09-10T21:39:08.328Z,3.00
2017-09-10T21:41:36.824Z,3.20
2017-09-10T21:44:05.161Z,3.00
2017-09-10T21:46:33.605Z,3.33
2017-09-10T21:49:01.839Z,3.40
2017-09-10T21:51:33.165Z,2.80
2017-09-10T21:54:02.758Z,2.70
2017-09-10T21:56:31.183Z,3.43
2017-09-10T21:58:59.587Z,3.30
2017-09-10T22:01:27.836Z,3.17
2017-09-10T22:03:56.609Z,3.40
2017-09-10T22:06:26.326Z,3.37
2017-09-10T22:08:54.862Z,3.13
2017-09-10T22:11:28.778Z,2.83
2017-09-10T22:13:59.309Z,3.20
2017-09-10T22:16:27.725Z,3.67
2017-09-10T22:18:56.274Z,3.60
2017-09-10T22:21:24.832Z,3.47
2017-09-10T22:23:53.265Z,3.73
2017-09-10T22:26:22.445Z,3.40
2017-09-10T22:28:51.017Z,3.40
2017-09-10T22:31:19.791Z,3.47
2017-09-10T22:33:48.212Z,3.47
2017-09-10T22:36:17.417Z,3.47
2017-09-10T22:38:45.848Z,3.43
2017-09-10T22:41:14.278Z,3.83
2017-09-10T22:43:42.776Z,4.00
2017-09-10T22:46:11.049Z,3.70
2017-09-10T22:48:39.338Z,3.50
2017-09-10T22:51:07.623Z,3.90
2017-09-10T22:53:35.866Z,3.10
2017-09-10T22:56:04.322Z,3.57
2017-09-10T22:58:32.830Z,3.20
2017-09-10T23:01:03.464Z,3.30
2017-09-10T23:03:31.881Z,3.80
2017-09-10T23:06:00.324Z,3.60
2017-09-10T23:08:28.754Z,3.57
2017-09-10T23:10:57.197Z,3.10
2017-09-10T23:13:25.620Z,3.90
2017-09-10T23:15:58.235Z,4.00
2017-09-10T23:18:27.827Z,3.80
2017-09-10T23:20:57.848Z,4.00
2017-09-10T23:23:26.272Z,3.87
2017-09-10T23:25:54.694Z,3.50
2017-09-10T23:28:23.113Z,3.93
2017-09-10T23:30:51.528Z,4.00
2017-09-10T23:33:19.939Z,3.77
2017-09-10T23:35:48.362Z,3.40
2017-09-10T23:38:17.600Z,3.73
2017-09-10T23:40:46.021Z,3.50
2017-09-10T23:43:14.452Z,3.20
2017-09-10T23:45:44.487Z,3.50
2017-09-10T23:48:12.905Z,3.90
2017-09-10T23:50:41.335Z,3.60
2017-09-10T23:53:09.962Z,3.67
2017-09-10T23:55:39.257Z,3.83
2017-09-10T23:58:07.848Z,3.87
